createdAt,value
2017-11-20T12:00:36.761Z,79.06
2017-11-20T12:01:42.511Z,78.95
2017-11-20T12:02:48.314Z,79.08
2017-11-20T12:03:53.452Z,78.98
2017-11-20T12:04:58.858Z,78.01
2017-11-20T12:06:04.068Z,77.69
2017-11-20T12:07:09.835Z,76.65
2017-11-20T12:08:14.970Z,77.20
2017-11-20T12:09:20.331Z,76.46
2017-11-20T12:10:25.414Z,76.25
2017-11-20T12:11:30.566Z,76.04
2017-11-20T12:12:36.018Z,75.67
2017-11-20T12:13:41.504Z,75.82
2017-11-20T12:14:46.953Z,74.68
2017-11-20T12:15:52.422Z,74.75
2017-11-20T12:17:01.982Z,74.05
2017-11-20T12:18:07.703Z,73.04
2017-11-20T12:19:13.108Z,73.67
2017-11-20T12:20:18.585Z,72.46
2017-11-20T12:21:23.634Z,72.57
2017-11-20T12:22:29.967Z,72.42
2017-11-20T12:23:35.770Z,72.50
2017-11-20T12:24:41.177Z,72.52
2017-11-20T12:25:46.446Z,72.09
2017-11-20T12:26:51.520Z,72.61
2017-11-20T12:27:57.275Z,72.31
2017-11-20T12:29:02.801Z,72.25
2017-11-20T12:30:08.234Z,72.46
2017-11-20T12:31:13.282Z,72.54
2017-11-20T12:32:18.347Z,72.65
2017-11-20T12:33:24.192Z,72.22
2017-11-20T12:34:29.302Z,71.79
2017-11-20T12:35:34.684Z,71.28
2017-11-20T12:36:39.517Z,71.35
2017-11-20T12:37:44.757Z,71.18
2017-11-20T12:38:50.497Z,71.56
2017-11-20T12:39:55.892Z,71.13
2017-11-20T12:41:01.975Z,71.51
2017-11-20T12:42:07.614Z,70.97
2017-11-20T12:43:15.079Z,71.56
2017-11-20T12:44:20.685Z,71.15
2017-11-20T12:45:27.438Z,70.42
2017-11-20T12:46:32.555Z,70.89
2017-11-20T12:47:37.610Z,70.93
2017-11-20T12:48:44.318Z,71.12
2017-11-20T12:49:49.626Z,71.03
2017-11-20T12:50:54.737Z,70.96
2017-11-20T12:52:01.008Z,70.63
2017-11-20T12:53:06.419Z,69.80
2017-11-20T12:54:12.310Z,69.83
2017-11-20T12:55:17.377Z,70.25
2017-11-20T12:56:23.632Z,70.24
2017-11-20T12:57:29.805Z,70.09
2017-11-20T12:58:36.171Z,70.24
2017-11-20T12:59:42.728Z,69.84
2017-11-20T13:00:48.216Z,69.83
2017-11-20T13:01:53.777Z,69.69
2017-11-20T13:02:58.640Z,69.90
2017-11-20T13:04:04.783Z,69.85
2017-11-20T13:05:10.004Z,69.88
2017-11-20T13:06:16.025Z,69.43
2017-11-20T13:07:21.996Z,69.58
2017-11-20T13:08:28.254Z,69.81
2017-11-20T13:09:33.754Z,70.14
2017-11-20T13:10:39.484Z,69.92
2017-11-20T13:11:46.193Z,70.03
2017-11-20T13:12:51.827Z,69.85
2017-11-20T13:13:57.371Z,69.99
2017-11-20T13:15:03.420Z,69.85
2017-11-20T13:16:09.153Z,69.95
2017-11-20T13:17:14.636Z,69.79
2017-11-20T13:18:20.491Z,69.92
2017-11-20T13:19:25.387Z,69.95
2017-11-20T13:20:30.502Z,69.96
2017-11-20T13:21:35.578Z,69.89
2017-11-20T13:22:41.426Z,69.94
2017-11-20T13:23:47.245Z,69.84
2017-11-20T13:24:52.314Z,70.15
2017-11-20T13:25:57.605Z,70.21
2017-11-20T13:27:02.794Z,70.20
2017-11-20T13:28:07.856Z,69.79
2017-11-20T13:29:12.936Z,70.02
2017-11-20T13:30:18.014Z,70.15
2017-11-20T13:31:23.052Z,70.23
2017-11-20T13:32:28.974Z,70.43
2017-11-20T13:33:34.062Z,70.11
2017-11-20T13:34:39.350Z,69.49
2017-11-20T13:35:46.182Z,69.19
2017-11-20T13:36:51.515Z,69.69
2017-11-20T13:37:56.555Z,69.89
2017-11-20T13:39:01.623Z,69.93
2017-11-20T13:40:07.435Z,70.02
2017-11-20T13:41:12.737Z,69.63
2017-11-20T13:42:17.825Z,69.52
2017-11-20T13:43:22.962Z,69.42
2017-11-20T13:44:28.032Z,69.71
2017-11-20T13:45:33.090Z,69.96
2017-11-20T13:46:38.910Z,70.43
2017-11-20T13:47:43.741Z,70.76
2017-11-20T13:48:49.562Z,70.84
2017-11-20T13:49:54.668Z,70.91
2017-11-20T13:50:59.476Z,71.49
2017-11-20T13:52:04.571Z,71.60
2017-11-20T13:53:10.445Z,71.23
2017-11-20T13:54:15.474Z,71.43
2017-11-20T13:55:20.553Z,71.77
2017-11-20T13:56:26.368Z,71.81
2017-11-20T13:57:31.404Z,72.05
2017-11-20T13:58:37.130Z,72.34
2017-11-20T13:59:42.167Z,72.41
2017-11-20T14:00:47.233Z,72.50
2017-11-20T14:01:52.396Z,72.48
2017-11-20T14:02:57.507Z,72.37
2017-11-20T14:04:02.303Z,72.70
2017-11-20T14:05:08.212Z,72.88
2017-11-20T14:06:30.653Z,73.27
2017-11-20T14:07:36.120Z,73.45
2017-11-20T14:08:41.166Z,73.56
2017-11-20T14:09:46.571Z,73.85
2017-11-20T14:10:51.611Z,73.70
2017-11-20T14:11:56.718Z,73.74
2017-11-20T14:13:02.707Z,73.73
2017-11-20T14:14:07.752Z,73.88
2017-11-20T14:15:13.002Z,73.81
2017-11-20T14:16:18.822Z,73.70
2017-11-20T14:17:23.731Z,73.28
2017-11-20T14:18:29.000Z,74.02
2017-11-20T14:19:34.375Z,73.95
2017-11-20T14:20:39.789Z,74.14
2017-11-20T14:21:44.853Z,74.15
2017-11-20T14:22:50.251Z,74.28
2017-11-20T14:23:55.303Z,74.59
2017-11-20T14:25:00.683Z,74.43
2017-11-20T14:26:06.499Z,74.52
2017-11-20T14:27:11.885Z,74.21
2017-11-20T14:28:17.106Z,74.42
2017-11-20T14:29:23.014Z,74.38
2017-11-20T14:30:28.401Z,74.19
2017-11-20T14:31:33.462Z,74.34
2017-11-20T14:32:39.067Z,74.27
2017-11-20T14:33:45.539Z,74.35
2017-11-20T14:34:50.582Z,74.65
2017-11-20T14:35:55.663Z,74.47
2017-11-20T14:37:00.793Z,74.65
2017-11-20T14:38:05.861Z,74.71
2017-11-20T14:39:10.933Z,74.39
2017-11-20T14:40:16.079Z,74.88
2017-11-20T14:41:21.144Z,74.95
2017-11-20T14:42:26.250Z,74.97
2017-11-20T14:43:31.062Z,74.63
2017-11-20T14:44:36.177Z,74.46
2017-11-20T14:45:41.306Z,74.90
2017-11-20T14:46:46.145Z,75.20
2017-11-20T14:48:05.364Z,75.18
2017-11-20T14:49:10.187Z,75.29
2017-11-20T14:50:15.298Z,75.41
2017-11-20T14:51:34.220Z,75.32
2017-11-20T14:52:39.609Z,75.51
2017-11-20T14:53:45.772Z,75.59
2017-11-20T14:54:50.660Z,75.36
2017-11-20T14:55:56.520Z,75.44
2017-11-20T14:57:01.333Z,75.34
2017-11-20T14:58:06.390Z,75.26
2017-11-20T14:59:11.486Z,75.16
2017-11-20T15:00:16.534Z,75.17
2017-11-20T15:01:26.031Z,75.14
2017-11-20T15:02:31.079Z,75.20
2017-11-20T15:03:36.331Z,75.16
2017-11-20T15:04:41.623Z,75.40
2017-11-20T15:05:46.511Z,75.59
2017-11-20T15:06:51.574Z,75.57
2017-11-20T15:07:56.656Z,75.72
2017-11-20T15:09:01.781Z,75.97
2017-11-20T15:10:06.828Z,76.27
2017-11-20T15:11:12.682Z,76.08
2017-11-20T15:12:17.710Z,75.95
2017-11-20T15:13:24.459Z,75.83
2017-11-20T15:14:30.186Z,75.64
2017-11-20T15:15:36.026Z,75.77
2017-11-20T15:16:41.101Z,75.91
2017-11-20T15:17:45.962Z,75.99
2017-11-20T15:18:51.009Z,75.96
2017-11-20T15:19:56.674Z,75.83
2017-11-20T15:21:02.005Z,75.78
2017-11-20T15:22:06.971Z,75.77
2017-11-20T15:23:12.893Z,75.81
2017-11-20T15:24:18.412Z,76.17
2017-11-20T15:25:23.468Z,76.14
2017-11-20T15:26:29.007Z,76.12
2017-11-20T15:27:34.487Z,76.12
2017-11-20T15:28:39.728Z,76.48
2017-11-20T15:29:45.213Z,76.62
2017-11-20T15:30:51.156Z,76.55
2017-11-20T15:31:56.247Z,76.43
2017-11-20T15:33:01.326Z,76.22
2017-11-20T15:34:06.997Z,76.47
2017-11-20T15:35:12.555Z,76.55
2017-11-20T15:36:18.921Z,76.62
2017-11-20T15:37:24.631Z,76.54
2017-11-20T15:38:29.772Z,76.50
2017-11-20T15:39:35.272Z,76.81
2017-11-20T15:40:41.648Z,76.85
2017-11-20T15:41:47.530Z,76.85
2017-11-20T15:42:53.538Z,76.77
2017-11-20T15:43:59.487Z,76.61
2017-11-20T15:45:05.097Z,76.36
2017-11-20T15:46:11.272Z,76.67
2017-11-20T15:47:17.532Z,76.86
2017-11-20T15:48:23.412Z,77.18
2017-11-20T15:49:29.522Z,77.16
2017-11-20T15:50:35.533Z,77.12
2017-11-20T15:51:42.300Z,77.14
2017-11-20T15:52:49.272Z,77.29
2017-11-20T15:53:55.124Z,76.31
2017-11-20T15:55:01.814Z,76.60
2017-11-20T15:56:07.835Z,76.89
2017-11-20T15:57:14.338Z,77.06
2017-11-20T15:58:20.703Z,77.17
2017-11-20T15:59:26.721Z,77.50
2017-11-20T16:00:32.460Z,77.21
2017-11-20T16:01:38.511Z,77.15
2017-11-20T16:02:44.355Z,77.28
2017-11-20T16:03:50.403Z,77.38
2017-11-20T16:04:56.428Z,76.78
2017-11-20T16:06:02.089Z,76.84
2017-11-20T16:07:08.243Z,77.13
2017-11-20T16:08:17.155Z,77.12
2017-11-20T16:09:24.332Z,77.33
2017-11-20T16:10:30.276Z,77.35
2017-11-20T16:11:36.437Z,77.44
2017-11-20T16:12:42.273Z,77.57
2017-11-20T16:13:48.370Z,77.41
2017-11-20T16:14:54.572Z,77.63
2017-11-20T16:16:01.288Z,77.30
2017-11-20T16:17:09.094Z,77.07
2017-11-20T16:18:15.715Z,77.23
2017-11-20T16:19:22.650Z,77.68
2017-11-20T16:20:29.449Z,78.15
2017-11-20T16:21:35.578Z,78.24
2017-11-20T16:22:41.823Z,78.29
2017-11-20T16:23:48.094Z,78.30
2017-11-20T16:24:54.280Z,78.14
2017-11-20T16:26:01.097Z,78.09
2017-11-20T16:27:09.048Z,77.70
2017-11-20T16:28:15.855Z,77.38
2017-11-20T16:29:24.256Z,77.71
2017-11-20T16:30:31.030Z,77.69
2017-11-20T16:31:37.173Z,78.11
2017-11-20T16:32:44.726Z,78.00
2017-11-20T16:33:53.499Z,78.03
2017-11-20T16:35:00.338Z,78.23
2017-11-20T16:36:06.384Z,78.11
2017-11-20T16:37:12.585Z,78.26
2017-11-20T16:38:19.455Z,78.35
2017-11-20T16:39:26.301Z,78.23
2017-11-20T16:40:32.023Z,78.20
2017-11-20T16:41:39.083Z,78.52
2017-11-20T16:42:45.232Z,78.62
2017-11-20T16:43:51.386Z,78.42
2017-11-20T16:44:57.537Z,78.36
2017-11-20T16:46:03.278Z,78.05
2017-11-20T16:47:09.122Z,77.79
2017-11-20T16:48:15.169Z,78.13
2017-11-20T16:49:21.352Z,78.15
2017-11-20T16:50:28.219Z,78.03
2017-11-20T16:51:34.439Z,77.83
2017-11-20T16:52:40.595Z,78.00
2017-11-20T16:53:46.772Z,78.17
2017-11-20T16:54:52.895Z,78.22
2017-11-20T16:55:58.941Z,78.46
2017-11-20T16:57:21.781Z,78.51
2017-11-20T16:58:44.653Z,78.76
2017-11-20T16:59:51.001Z,78.69
2017-11-20T17:00:57.625Z,78.84
2017-11-20T17:03:48.600Z,79.38
2017-11-20T17:04:56.391Z,78.95
2017-11-20T17:06:03.647Z,78.69
2017-11-20T17:07:11.404Z,78.44
2017-11-20T17:08:19.297Z,78.53
2017-11-20T17:09:26.277Z,78.61
2017-11-20T17:10:33.711Z,78.64
2017-11-20T17:11:40.794Z,78.49
2017-11-20T17:12:46.769Z,77.77
2017-11-20T17:13:53.024Z,77.78
2017-11-20T17:14:59.074Z,78.06
2017-11-20T17:16:05.555Z,78.18
2017-11-20T17:17:11.788Z,77.91
2017-11-20T17:18:17.968Z,77.60
2017-11-20T17:19:25.010Z,77.65
2017-11-20T17:20:31.879Z,77.62
2017-11-20T17:21:38.185Z,77.87
2017-11-20T17:22:47.964Z,78.17
2017-11-20T17:23:55.363Z,78.22
2017-11-20T17:25:01.499Z,78.25
2017-11-20T17:26:08.469Z,78.50
2017-11-20T17:27:17.102Z,78.62
2017-11-20T17:28:24.503Z,78.66
2017-11-20T17:29:32.854Z,78.47
2017-11-20T17:30:39.599Z,79.06
2017-11-20T17:31:45.882Z,79.12
2017-11-20T17:32:52.403Z,79.34
2017-11-20T17:34:02.070Z,79.23
2017-11-20T17:35:11.305Z,79.29
2017-11-20T17:36:17.227Z,79.34
2017-11-20T17:37:23.579Z,79.61
2017-11-20T17:38:29.619Z,79.63
2017-11-20T17:39:35.739Z,79.59
2017-11-20T17:40:42.811Z,79.48
2017-11-20T17:41:49.824Z,79.51
2017-11-20T17:42:56.487Z,79.45
2017-11-20T17:44:03.067Z,79.51
2017-11-20T17:45:09.249Z,79.48
2017-11-20T17:46:16.113Z,79.28
2017-11-20T17:47:22.262Z,79.28
2017-11-20T17:48:30.883Z,79.20
2017-11-20T17:49:37.817Z,79.12
2017-11-20T17:50:43.888Z,79.28
2017-11-20T17:51:50.916Z,79.68
2017-11-20T17:52:57.181Z,79.68
2017-11-20T17:54:02.922Z,79.90
2017-11-20T17:55:09.391Z,79.97
2017-11-20T17:56:15.518Z,80.11
2017-11-20T17:57:23.002Z,80.29
2017-11-20T17:58:29.049Z,80.34
2017-11-20T17:59:36.428Z,80.78
2017-11-20T18:00:43.500Z,80.52
2017-11-20T18:01:49.445Z,80.27
2017-11-20T18:02:56.415Z,80.37
2017-11-20T18:04:02.340Z,80.45
2017-11-20T18:05:08.524Z,80.42
2017-11-20T18:06:16.194Z,80.45
2017-11-20T18:07:22.451Z,80.47
2017-11-20T18:08:31.334Z,80.37
2017-11-20T18:09:39.462Z,80.13
2017-11-20T18:10:45.576Z,80.35
2017-11-20T18:11:52.383Z,80.21
2017-11-20T18:12:58.325Z,80.79
2017-11-20T18:14:05.211Z,80.82
2017-11-20T18:15:11.386Z,81.00
2017-11-20T18:16:19.850Z,80.72
2017-11-20T18:17:27.903Z,80.47
2017-11-20T18:18:35.222Z,80.56
2017-11-20T18:19:42.102Z,80.58
2017-11-20T18:20:48.394Z,80.76
2017-11-20T18:21:54.905Z,80.67
2017-11-20T18:23:01.944Z,80.35
2017-11-20T18:24:08.852Z,80.21
2017-11-20T18:25:16.323Z,80.47
2017-11-20T18:26:25.760Z,80.47
2017-11-20T18:27:32.337Z,80.35
2017-11-20T18:28:38.486Z,80.32
2017-11-20T18:29:45.639Z,80.57
2017-11-20T18:30:51.892Z,80.47
2017-11-20T18:31:58.099Z,80.25
2017-11-20T18:33:06.460Z,80.17
2017-11-20T18:34:12.504Z,80.39
2017-11-20T18:35:19.398Z,80.44
2017-11-20T18:36:27.577Z,80.29
2017-11-20T18:37:33.781Z,80.11
2017-11-20T18:38:41.192Z,79.71
2017-11-20T18:39:47.548Z,79.53
2017-11-20T18:40:54.228Z,79.67
2017-11-20T18:42:01.189Z,79.87
2017-11-20T18:43:07.445Z,80.16
2017-11-20T18:44:15.335Z,80.29
2017-11-20T18:45:21.475Z,80.57
2017-11-20T18:46:28.445Z,80.60
2017-11-20T18:47:34.344Z,80.44
2017-11-20T18:48:41.166Z,80.17
2017-11-20T18:49:47.012Z,80.34
2017-11-20T18:50:53.595Z,80.25
2017-11-20T18:52:01.767Z,80.10
2017-11-20T18:53:07.873Z,80.02
2017-11-20T18:54:16.315Z,79.93
2017-11-20T18:55:22.260Z,79.86
2017-11-20T18:56:29.239Z,79.64
2017-11-20T18:57:35.481Z,79.44
2017-11-20T18:58:41.637Z,79.32
2017-11-20T18:59:47.423Z,79.32
2017-11-20T19:01:10.317Z,79.66
2017-11-20T19:02:34.298Z,79.99
2017-11-20T19:05:46.184Z,80.34
2017-11-20T19:07:09.333Z,80.42
2017-11-20T19:08:32.278Z,80.44
2017-11-20T19:09:38.559Z,80.72
2017-11-20T19:10:44.580Z,80.39
2017-11-20T19:11:50.600Z,80.25
2017-11-20T19:12:57.596Z,80.10
2017-11-20T19:14:04.415Z,80.03
2017-11-20T19:15:12.264Z,80.00
2017-11-20T19:16:18.403Z,80.41
2017-11-20T19:17:25.988Z,80.28
2017-11-20T19:18:32.267Z,80.35
2017-11-20T19:19:39.638Z,80.29
2017-11-20T19:20:45.788Z,80.41
2017-11-20T19:21:52.030Z,80.29
2017-11-20T19:23:01.552Z,80.38
2017-11-20T19:24:08.386Z,80.08
2017-11-20T19:25:16.027Z,80.37
2017-11-20T19:26:23.080Z,80.19
2017-11-20T19:27:30.742Z,80.16
2017-11-20T19:28:37.666Z,80.53
2017-11-20T19:29:43.680Z,80.47
2017-11-20T19:30:49.781Z,80.28
2017-11-20T19:31:56.514Z,80.29
2017-11-20T19:33:03.471Z,80.22
2017-11-20T19:34:10.025Z,79.97
2017-11-20T19:35:17.074Z,80.05
2017-11-20T19:36:24.745Z,80.19
2017-11-20T19:37:33.041Z,80.29
2017-11-20T19:38:40.380Z,80.33
2017-11-20T19:39:48.121Z,80.45
2017-11-20T19:40:54.768Z,80.48
2017-11-20T19:42:02.626Z,80.37
2017-11-20T19:43:11.454Z,80.34
2017-11-20T19:44:18.833Z,80.42
2017-11-20T19:45:24.967Z,80.51
2017-11-20T19:46:30.994Z,80.69
2017-11-20T19:47:37.451Z,80.50
2017-11-20T19:48:43.420Z,80.25
2017-11-20T19:49:49.546Z,80.26
2017-11-20T19:50:57.451Z,80.30
2017-11-20T19:52:04.976Z,80.75
2017-11-20T19:53:11.588Z,80.42
2017-11-20T19:54:17.730Z,80.25
2017-11-20T19:55:25.625Z,80.28
2017-11-20T19:56:33.367Z,80.30
2017-11-20T19:57:40.606Z,80.48
2017-11-20T19:58:47.665Z,80.40
2017-11-20T19:59:55.005Z,80.28
2017-11-20T20:01:01.827Z,80.39
2017-11-20T20:02:08.946Z,80.48
2017-11-20T20:03:16.363Z,80.37
2017-11-20T20:04:24.672Z,80.37
2017-11-20T20:05:31.663Z,80.02
2017-11-20T20:06:40.775Z,79.76
2017-11-20T20:07:48.937Z,79.74
2017-11-20T20:08:55.828Z,79.94
2017-11-20T20:10:03.299Z,79.90
2017-11-20T20:11:11.515Z,79.88
2017-11-20T20:12:17.579Z,79.80
2017-11-20T20:13:40.969Z,79.81
2017-11-20T20:15:03.953Z,80.06
2017-11-20T20:17:55.516Z,80.71
2017-11-20T20:19:02.764Z,80.58
2017-11-20T20:20:09.837Z,80.59
2017-11-20T20:21:16.057Z,80.59
2017-11-20T20:22:23.160Z,80.68
2017-11-20T20:23:29.616Z,80.84
2017-11-20T20:24:38.267Z,80.94
2017-11-20T20:25:44.473Z,80.93
2017-11-20T20:26:51.343Z,80.83
2017-11-20T20:27:58.214Z,80.91
2017-11-20T20:29:06.282Z,80.85
2017-11-20T20:30:14.184Z,80.80
2017-11-20T20:31:21.321Z,81.33
2017-11-20T20:32:30.071Z,81.50
2017-11-20T20:33:39.239Z,81.69
2017-11-20T20:34:46.903Z,81.74
2017-11-20T20:35:54.154Z,81.53
2017-11-20T20:37:00.277Z,81.62
2017-11-20T20:38:06.562Z,81.65
2017-11-20T20:39:12.813Z,81.56
2017-11-20T20:40:19.696Z,81.58
2017-11-20T20:41:26.248Z,81.29
2017-11-20T20:42:33.106Z,81.47
2017-11-20T20:43:39.359Z,82.02
2017-11-20T20:44:48.685Z,82.00
2017-11-20T20:45:56.277Z,82.16
2017-11-20T20:47:07.855Z,82.29
2017-11-20T20:48:15.123Z,82.28
2017-11-20T20:49:21.653Z,82.37
2017-11-20T20:50:30.602Z,82.43
2017-11-20T20:51:38.448Z,82.10
2017-11-20T20:52:46.709Z,82.27
2017-11-20T20:53:53.672Z,82.71
2017-11-20T20:55:03.813Z,82.84
2017-11-20T20:56:10.996Z,83.01
2017-11-20T20:57:18.183Z,82.66
2017-11-20T20:58:26.050Z,82.53
2017-11-20T20:59:32.340Z,82.85
2017-11-20T21:00:39.336Z,82.67
2017-11-20T21:01:47.159Z,82.50
2017-11-20T21:02:54.034Z,82.22
2017-11-20T21:04:00.179Z,82.28
2017-11-20T21:05:10.667Z,82.56
2017-11-20T21:06:18.322Z,82.53
2017-11-20T21:07:24.952Z,82.40
2017-11-20T21:08:31.508Z,82.32
2017-11-20T21:09:43.751Z,82.20
2017-11-20T21:10:55.692Z,82.20
2017-11-20T21:12:07.574Z,82.23
2017-11-20T21:13:15.970Z,82.54
2017-11-20T21:14:25.261Z,82.59
2017-11-20T21:15:31.617Z,82.89
2017-11-20T21:16:38.249Z,82.72
2017-11-20T21:17:45.348Z,82.70
2017-11-20T21:18:52.416Z,82.80
2017-11-20T21:19:58.561Z,82.87
2017-11-20T21:21:07.765Z,82.87
2017-11-20T21:22:15.608Z,82.90
2017-11-20T21:23:23.934Z,82.95
2017-11-20T21:24:30.108Z,82.97
2017-11-20T21:25:36.770Z,82.98
2017-11-20T21:26:44.731Z,82.87
2017-11-20T21:27:51.435Z,82.69
2017-11-20T21:28:58.610Z,82.67
2017-11-20T21:30:06.596Z,82.35
2017-11-20T21:31:12.700Z,82.18
2017-11-20T21:32:19.572Z,82.23
2017-11-20T21:33:26.483Z,81.94
2017-11-20T21:34:32.631Z,82.07
2017-11-20T21:35:41.734Z,81.99
2017-11-20T21:36:48.113Z,82.05
2017-11-20T21:37:55.124Z,82.14
2017-11-20T21:39:02.827Z,81.91
2017-11-20T21:40:09.750Z,81.62
2017-11-20T21:41:15.968Z,81.19
2017-11-20T21:42:23.731Z,81.44
2017-11-20T21:43:30.444Z,81.50
2017-11-20T21:44:37.751Z,81.79
2017-11-20T21:45:43.970Z,82.25
2017-11-20T21:46:50.117Z,82.27
2017-11-20T21:47:56.236Z,82.24
2017-11-20T21:49:03.061Z,82.23
2017-11-20T21:50:09.091Z,82.47
2017-11-20T21:51:16.136Z,82.22
2017-11-20T21:52:23.136Z,81.82
2017-11-20T21:53:29.342Z,81.86
2017-11-20T21:54:37.339Z,81.78
2017-11-20T21:55:44.144Z,81.77
2017-11-20T21:56:50.497Z,81.66
2017-11-20T21:57:57.603Z,81.07
2017-11-20T21:59:03.841Z,80.93
2017-11-20T22:00:10.220Z,80.91
2017-11-20T22:01:17.490Z,80.92
2017-11-20T22:02:24.934Z,81.06
2017-11-20T22:03:31.956Z,81.05
2017-11-20T22:04:38.128Z,81.02
2017-11-20T22:05:46.462Z,81.11
2017-11-20T22:06:54.041Z,81.69
2017-11-20T22:08:00.098Z,81.87
2017-11-20T22:09:06.073Z,82.02
2017-11-20T22:10:12.087Z,82.00
2017-11-20T22:11:18.304Z,82.23
2017-11-20T22:12:41.824Z,81.93
2017-11-20T22:13:49.871Z,82.08
2017-11-20T22:14:56.245Z,82.20
2017-11-20T22:16:02.696Z,82.30
2017-11-20T22:17:08.708Z,82.20
2017-11-20T22:18:15.623Z,82.21
2017-11-20T22:19:21.624Z,82.00
2017-11-20T22:20:28.974Z,81.86
2017-11-20T22:21:35.104Z,81.99
2017-11-20T22:22:42.766Z,82.07
2017-11-20T22:23:52.057Z,81.89
2017-11-20T22:24:58.983Z,82.02
2017-11-20T22:26:05.133Z,81.92
2017-11-20T22:27:11.678Z,81.77
2017-11-20T22:28:17.795Z,81.56
2017-11-20T22:29:23.839Z,81.65
2017-11-20T22:30:29.186Z,81.38
2017-11-20T22:31:36.824Z,81.28
2017-11-20T22:32:42.892Z,81.47
2017-11-20T22:33:50.176Z,81.46
2017-11-20T22:34:56.187Z,81.27
2017-11-20T22:36:02.296Z,81.31
2017-11-20T22:37:08.485Z,81.50
2017-11-20T22:38:15.149Z,81.58
2017-11-20T22:39:21.910Z,81.34
2017-11-20T22:40:28.072Z,81.51
2017-11-20T22:41:35.147Z,81.53
2017-11-20T22:42:42.639Z,81.64
2017-11-20T22:43:48.314Z,81.44
2017-11-20T22:44:54.184Z,81.26
2017-11-20T22:46:00.969Z,81.37
2017-11-20T22:47:06.924Z,81.34
2017-11-20T22:48:12.806Z,81.13
2017-11-20T22:49:19.104Z,81.01
2017-11-20T22:50:25.935Z,81.14
2017-11-20T22:51:31.956Z,80.96
2017-11-20T22:52:37.999Z,81.27
2017-11-20T22:53:44.939Z,81.23
2017-11-20T22:54:50.866Z,81.01
2017-11-20T22:55:57.509Z,81.02
2017-11-20T22:57:03.366Z,81.06
2017-11-20T22:58:09.253Z,81.47
2017-11-20T22:59:15.302Z,81.69
2017-11-20T23:00:21.358Z,81.39
2017-11-20T23:01:27.152Z,81.49
2017-11-20T23:02:34.038Z,81.82
2017-11-20T23:03:40.566Z,81.72
2017-11-20T23:04:46.118Z,81.64
2017-11-20T23:05:51.897Z,81.63
2017-11-20T23:06:57.694Z,81.75
2017-11-20T23:08:03.657Z,81.97
2017-11-20T23:09:10.649Z,81.91
2017-11-20T23:10:16.804Z,81.51
2017-11-20T23:11:22.209Z,81.37
2017-11-20T23:12:27.605Z,81.41
2017-11-20T23:13:32.646Z,81.29
2017-11-20T23:14:37.686Z,81.46
2017-11-20T23:15:42.720Z,81.37
2017-11-20T23:16:49.192Z,81.24
2017-11-20T23:17:55.837Z,81.10
2017-11-20T23:19:02.338Z,81.19
2017-11-20T23:20:08.059Z,81.52
2017-11-20T23:21:14.190Z,81.39
2017-11-20T23:22:19.891Z,81.50
2017-11-20T23:23:25.608Z,81.64
2017-11-20T23:24:31.306Z,81.77
2017-11-20T23:25:37.014Z,81.97
2017-11-20T23:26:42.719Z,82.00
2017-11-20T23:27:48.091Z,82.00
2017-11-20T23:28:53.811Z,81.97
2017-11-20T23:29:59.509Z,82.00
2017-11-20T23:31:05.221Z,81.82
2017-11-20T23:32:10.987Z,81.74
2017-11-20T23:33:17.463Z,81.87
2017-11-20T23:34:23.950Z,81.82
2017-11-20T23:35:29.645Z,81.86
2017-11-20T23:36:36.150Z,81.82
2017-11-20T23:37:41.853Z,81.91
2017-11-20T23:38:48.319Z,81.79
2017-11-20T23:39:54.805Z,81.75
2017-11-20T23:41:00.500Z,81.66
2017-11-20T23:42:07.702Z,81.39
2017-11-20T23:43:13.403Z,81.39
2017-11-20T23:44:19.102Z,81.24
2017-11-20T23:45:24.826Z,81.18
2017-11-20T23:46:30.517Z,80.96
2017-11-20T23:47:36.209Z,80.96
2017-11-20T23:48:41.909Z,80.94
2017-11-20T23:49:47.397Z,80.85
2017-11-20T23:50:53.121Z,80.83
2017-11-20T23:51:58.810Z,80.89
2017-11-20T23:53:04.506Z,80.85
2017-11-20T23:54:09.315Z,80.81
2017-11-20T23:55:15.035Z,81.01
2017-11-20T23:56:20.746Z,81.29
2017-11-20T23:57:26.436Z,81.29
2017-11-20T23:58:32.131Z,81.61
2017-11-20T23:59:37.829Z,81.84
